sensor_id;sensor_type;location;lat;lon;timestamp;P1;durP1;ratioP1;P2;durP2;ratioP2
67237;SDS011;54149;52.708;6.178;2024-02-23T00:02:19;2.58;;;0.65;;
67237;SDS011;54149;52.708;6.178;2024-02-23T00:04:45;4.38;;;0.80;;
67237;SDS011;54149;52.708;6.178;2024-02-23T00:07:11;4.88;;;0.77;;
67237;SDS011;54149;52.708;6.178;2024-02-23T00:09:37;1.25;;;0.40;;
67237;SDS011;54149;52.708;6.178;2024-02-23T00:12:03;5.40;;;1.05;;
67237;SDS011;54149;52.708;6.178;2024-02-23T00:14:30;6.22;;;0.82;;
67237;SDS011;54149;52.708;6.178;2024-02-23T00:16:56;1.20;;;0.50;;
67237;SDS011;54149;52.708;6.178;2024-02-23T00:19:23;4.90;;;0.60;;
67237;SDS011;54149;52.708;6.178;2024-02-23T00:21:50;4.22;;;0.43;;
67237;SDS011;54149;52.708;6.178;2024-02-23T00:24:17;2.42;;;0.60;;
67237;SDS011;54149;52.708;6.178;2024-02-23T00:26:46;2.28;;;0.60;;
67237;SDS011;54149;52.708;6.178;2024-02-23T00:29:12;2.30;;;0.57;;
67237;SDS011;54149;52.708;6.178;2024-02-23T00:31:38;5.25;;;0.73;;
67237;SDS011;54149;52.708;6.178;2024-02-23T00:34:07;2.63;;;0.77;;
67237;SDS011;54149;52.708;6.178;2024-02-23T00:36:41;1.45;;;0.60;;
67237;SDS011;54149;52.708;6.178;2024-02-23T00:39:09;2.50;;;0.70;;
67237;SDS011;54149;52.708;6.178;2024-02-23T00:41:36;1.17;;;0.80;;
67237;SDS011;54149;52.708;6.178;2024-02-23T00:44:02;1.98;;;0.80;;
67237;SDS011;54149;52.708;6.178;2024-02-23T00:46:29;6.93;;;0.90;;
67237;SDS011;54149;52.708;6.178;2024-02-23T00:48:55;4.53;;;1.08;;
67237;SDS011;54149;52.708;6.178;2024-02-23T00:51:21;2.88;;;0.90;;
67237;SDS011;54149;52.708;6.178;2024-02-23T00:53:47;5.07;;;1.00;;
67237;SDS011;54149;52.708;6.178;2024-02-23T00:56:13;7.45;;;1.50;;
67237;SDS011;54149;52.708;6.178;2024-02-23T00:58:39;4.63;;;1.27;;
67237;SDS011;54149;52.708;6.178;2024-02-23T01:01:05;4.93;;;1.05;;
67237;SDS011;54149;52.708;6.178;2024-02-23T01:03:31;4.47;;;1.27;;
67237;SDS011;54149;52.708;6.178;2024-02-23T01:05:58;4.03;;;1.15;;
67237;SDS011;54149;52.708;6.178;2024-02-23T01:08:24;8.73;;;1.88;;
67237;SDS011;54149;52.708;6.178;2024-02-23T01:10:50;8.52;;;2.75;;
67237;SDS011;54149;52.708;6.178;2024-02-23T01:13:16;5.47;;;1.20;;
67237;SDS011;54149;52.708;6.178;2024-02-23T01:15:42;13.50;;;1.50;;
67237;SDS011;54149;52.708;6.178;2024-02-23T01:18:08;6.78;;;1.88;;
67237;SDS011;54149;52.708;6.178;2024-02-23T01:20:34;10.02;;;2.13;;
67237;SDS011;54149;52.708;6.178;2024-02-23T01:23:01;7.28;;;1.90;;
67237;SDS011;54149;52.708;6.178;2024-02-23T01:25:27;12.43;;;2.30;;
67237;SDS011;54149;52.708;6.178;2024-02-23T01:27:53;6.82;;;1.70;;
67237;SDS011;54149;52.708;6.178;2024-02-23T01:30:19;14.63;;;1.80;;
67237;SDS011;54149;52.708;6.178;2024-02-23T01:32:45;10.98;;;2.22;;
67237;SDS011;54149;52.708;6.178;2024-02-23T01:35:11;12.55;;;2.25;;
67237;SDS011;54149;52.708;6.178;2024-02-23T01:37:38;10.77;;;2.65;;
67237;SDS011;54149;52.708;6.178;2024-02-23T01:40:04;14.25;;;2.50;;
67237;SDS011;54149;52.708;6.178;2024-02-23T01:42:31;15.18;;;2.55;;
67237;SDS011;54149;52.708;6.178;2024-02-23T01:44:57;17.75;;;2.85;;
67237;SDS011;54149;52.708;6.178;2024-02-23T01:47:26;20.52;;;3.08;;
67237;SDS011;54149;52.708;6.178;2024-02-23T01:49:53;15.73;;;2.03;;
67237;SDS011;54149;52.708;6.178;2024-02-23T01:52:20;23.05;;;2.63;;
67237;SDS011;54149;52.708;6.178;2024-02-23T01:54:46;13.55;;;3.22;;
67237;SDS011;54149;52.708;6.178;2024-02-23T01:57:12;13.25;;;2.25;;
67237;SDS011;54149;52.708;6.178;2024-02-23T01:59:39;21.40;;;2.40;;
67237;SDS011;54149;52.708;6.178;2024-02-23T02:02:06;18.95;;;2.55;;
67237;SDS011;54149;52.708;6.178;2024-02-23T02:04:32;10.07;;;2.30;;
67237;SDS011;54149;52.708;6.178;2024-02-23T02:06:58;14.63;;;2.10;;
67237;SDS011;54149;52.708;6.178;2024-02-23T02:09:25;17.92;;;2.70;;
67237;SDS011;54149;52.708;6.178;2024-02-23T02:11:51;16.45;;;2.60;;
67237;SDS011;54149;52.708;6.178;2024-02-23T02:14:17;15.65;;;2.22;;
67237;SDS011;54149;52.708;6.178;2024-02-23T02:16:44;12.25;;;2.13;;
67237;SDS011;54149;52.708;6.178;2024-02-23T02:19:10;12.45;;;1.90;;
67237;SDS011;54149;52.708;6.178;2024-02-23T02:21:37;18.00;;;2.45;;
67237;SDS011;54149;52.708;6.178;2024-02-23T02:24:03;17.52;;;2.08;;
67237;SDS011;54149;52.708;6.178;2024-02-23T02:26:30;9.85;;;2.38;;
67237;SDS011;54149;52.708;6.178;2024-02-23T02:28:56;13.50;;;1.35;;
67237;SDS011;54149;52.708;6.178;2024-02-23T02:31:22;12.55;;;2.00;;
67237;SDS011;54149;52.708;6.178;2024-02-23T02:33:48;6.30;;;1.40;;
67237;SDS011;54149;52.708;6.178;2024-02-23T02:36:15;14.88;;;2.13;;
67237;SDS011;54149;52.708;6.178;2024-02-23T02:38:41;13.65;;;2.28;;
67237;SDS011;54149;52.708;6.178;2024-02-23T02:41:08;16.52;;;2.30;;
67237;SDS011;54149;52.708;6.178;2024-02-23T02:43:34;12.38;;;1.67;;
67237;SDS011;54149;52.708;6.178;2024-02-23T02:46:02;14.38;;;2.15;;
67237;SDS011;54149;52.708;6.178;2024-02-23T02:48:28;16.80;;;2.30;;
67237;SDS011;54149;52.708;6.178;2024-02-23T02:50:54;14.23;;;2.25;;
67237;SDS011;54149;52.708;6.178;2024-02-23T02:53:21;11.25;;;1.85;;
67237;SDS011;54149;52.708;6.178;2024-02-23T02:55:47;20.92;;;2.78;;
67237;SDS011;54149;52.708;6.178;2024-02-23T02:58:13;9.25;;;1.48;;
67237;SDS011;54149;52.708;6.178;2024-02-23T03:00:39;14.38;;;2.05;;
67237;SDS011;54149;52.708;6.178;2024-02-23T03:03:05;12.65;;;1.73;;
67237;SDS011;54149;52.708;6.178;2024-02-23T03:05:31;14.52;;;2.17;;
67237;SDS011;54149;52.708;6.178;2024-02-23T03:07:58;16.33;;;2.10;;
67237;SDS011;54149;52.708;6.178;2024-02-23T03:10:24;11.88;;;1.88;;
67237;SDS011;54149;52.708;6.178;2024-02-23T03:12:50;10.20;;;1.98;;
67237;SDS011;54149;52.708;6.178;2024-02-23T03:15:16;13.35;;;2.67;;
67237;SDS011;54149;52.708;6.178;2024-02-23T03:17:42;13.93;;;1.73;;
67237;SDS011;54149;52.708;6.178;2024-02-23T03:20:08;9.55;;;1.67;;
67237;SDS011;54149;52.708;6.178;2024-02-23T03:22:36;17.70;;;2.08;;
67237;SDS011;54149;52.708;6.178;2024-02-23T03:25:02;11.73;;;1.67;;
67237;SDS011;54149;52.708;6.178;2024-02-23T03:27:33;11.85;;;1.98;;
67237;SDS011;54149;52.708;6.178;2024-02-23T03:29:59;9.27;;;1.67;;
67237;SDS011;54149;52.708;6.178;2024-02-23T03:32:25;13.27;;;2.55;;
67237;SDS011;54149;52.708;6.178;2024-02-23T03:34:51;11.80;;;2.55;;
67237;SDS011;54149;52.708;6.178;2024-02-23T03:37:18;11.02;;;1.75;;
67237;SDS011;54149;52.708;6.178;2024-02-23T03:39:44;16.40;;;1.40;;
67237;SDS011;54149;52.708;6.178;2024-02-23T03:42:10;7.18;;;1.45;;
67237;SDS011;54149;52.708;6.178;2024-02-23T03:44:36;10.45;;;1.40;;
67237;SDS011;54149;52.708;6.178;2024-02-23T03:47:02;6.35;;;1.27;;
67237;SDS011;54149;52.708;6.178;2024-02-23T03:49:28;7.93;;;1.20;;
67237;SDS011;54149;52.708;6.178;2024-02-23T03:51:54;9.30;;;1.35;;
67237;SDS011;54149;52.708;6.178;2024-02-23T03:54:20;9.52;;;1.35;;
67237;SDS011;54149;52.708;6.178;2024-02-23T03:56:47;9.35;;;1.10;;
67237;SDS011;54149;52.708;6.178;2024-02-23T03:59:13;11.88;;;1.77;;
67237;SDS011;54149;52.708;6.178;2024-02-23T04:01:39;7.90;;;1.40;;
67237;SDS011;54149;52.708;6.178;2024-02-23T04:04:05;9.55;;;2.20;;
67237;SDS011;54149;52.708;6.178;2024-02-23T04:06:32;12.48;;;1.60;;
67237;SDS011;54149;52.708;6.178;2024-02-23T04:08:59;7.22;;;1.55;;
67237;SDS011;54149;52.708;6.178;2024-02-23T04:11:25;10.30;;;1.75;;
67237;SDS011;54149;52.708;6.178;2024-02-23T04:13:51;16.15;;;2.80;;
67237;SDS011;54149;52.708;6.178;2024-02-23T04:16:17;10.80;;;2.15;;
67237;SDS011;54149;52.708;6.178;2024-02-23T04:18:43;9.02;;;2.25;;
67237;SDS011;54149;52.708;6.178;2024-02-23T04:21:09;9.95;;;2.40;;
67237;SDS011;54149;52.708;6.178;2024-02-23T04:23:35;12.27;;;3.28;;
67237;SDS011;54149;52.708;6.178;2024-02-23T04:26:02;10.80;;;3.55;;
67237;SDS011;54149;52.708;6.178;2024-02-23T04:28:28;12.00;;;3.90;;
67237;SDS011;54149;52.708;6.178;2024-02-23T04:30:56;15.48;;;4.18;;
67237;SDS011;54149;52.708;6.178;2024-02-23T04:33:22;14.18;;;4.50;;
67237;SDS011;54149;52.708;6.178;2024-02-23T04:35:48;12.98;;;4.25;;
67237;SDS011;54149;52.708;6.178;2024-02-23T04:38:15;18.83;;;4.93;;
67237;SDS011;54149;52.708;6.178;2024-02-23T04:40:41;9.60;;;4.95;;
67237;SDS011;54149;52.708;6.178;2024-02-23T04:43:07;15.48;;;4.80;;
67237;SDS011;54149;52.708;6.178;2024-02-23T04:45:33;16.65;;;6.22;;
67237;SDS011;54149;52.708;6.178;2024-02-23T04:47:59;13.80;;;5.43;;
67237;SDS011;54149;52.708;6.178;2024-02-23T04:50:25;17.50;;;6.32;;
67237;SDS011;54149;52.708;6.178;2024-02-23T04:52:51;16.45;;;6.47;;
67237;SDS011;54149;52.708;6.178;2024-02-23T04:55:17;23.80;;;6.82;;
67237;SDS011;54149;52.708;6.178;2024-02-23T04:57:43;16.08;;;6.57;;
67237;SDS011;54149;52.708;6.178;2024-02-23T05:00:10;18.50;;;6.35;;
67237;SDS011;54149;52.708;6.178;2024-02-23T05:02:36;18.10;;;7.28;;
67237;SDS011;54149;52.708;6.178;2024-02-23T05:05:03;15.40;;;6.53;;
67237;SDS011;54149;52.708;6.178;2024-02-23T05:07:33;19.90;;;6.78;;
67237;SDS011;54149;52.708;6.178;2024-02-23T05:09:59;16.38;;;7.13;;
67237;SDS011;54149;52.708;6.178;2024-02-23T05:12:25;20.95;;;7.50;;
67237;SDS011;54149;52.708;6.178;2024-02-23T05:14:51;15.80;;;6.45;;
67237;SDS011;54149;52.708;6.178;2024-02-23T05:17:17;14.98;;;6.55;;
67237;SDS011;54149;52.708;6.178;2024-02-23T05:19:44;12.00;;;6.35;;
67237;SDS011;54149;52.708;6.178;2024-02-23T05:22:11;15.88;;;6.82;;
67237;SDS011;54149;52.708;6.178;2024-02-23T05:24:37;20.88;;;6.22;;
67237;SDS011;54149;52.708;6.178;2024-02-23T05:27:03;18.05;;;5.72;;
67237;SDS011;54149;52.708;6.178;2024-02-23T05:29:30;15.68;;;5.75;;
67237;SDS011;54149;52.708;6.178;2024-02-23T05:31:56;18.05;;;5.38;;
67237;SDS011;54149;52.708;6.178;2024-02-23T05:34:22;18.17;;;6.00;;
67237;SDS011;54149;52.708;6.178;2024-02-23T05:36:49;20.42;;;6.03;;
67237;SDS011;54149;52.708;6.178;2024-02-23T05:39:16;15.52;;;6.05;;
67237;SDS011;54149;52.708;6.178;2024-02-23T05:41:43;15.73;;;5.78;;
67237;SDS011;54149;52.708;6.178;2024-02-23T05:44:09;13.85;;;5.28;;
67237;SDS011;54149;52.708;6.178;2024-02-23T05:46:35;12.52;;;5.75;;
67237;SDS011;54149;52.708;6.178;2024-02-23T05:49:02;16.42;;;6.30;;
67237;SDS011;54149;52.708;6.178;2024-02-23T05:51:31;19.27;;;6.95;;
67237;SDS011;54149;52.708;6.178;2024-02-23T05:53:57;17.52;;;5.60;;
67237;SDS011;54149;52.708;6.178;2024-02-23T05:56:24;17.67;;;6.28;;
67237;SDS011;54149;52.708;6.178;2024-02-23T05:58:50;13.65;;;5.93;;
67237;SDS011;54149;52.708;6.178;2024-02-23T06:01:17;18.30;;;6.78;;
67237;SDS011;54149;52.708;6.178;2024-02-23T06:03:43;17.88;;;6.55;;
67237;SDS011;54149;52.708;6.178;2024-02-23T06:06:10;14.63;;;6.03;;
67237;SDS011;54149;52.708;6.178;2024-02-23T06:08:36;20.27;;;6.65;;
67237;SDS011;54149;52.708;6.178;2024-02-23T06:11:03;13.82;;;5.55;;
67237;SDS011;54149;52.708;6.178;2024-02-23T06:13:29;19.00;;;6.28;;
67237;SDS011;54149;52.708;6.178;2024-02-23T06:15:56;19.58;;;7.10;;
67237;SDS011;54149;52.708;6.178;2024-02-23T06:18:22;17.08;;;6.05;;
67237;SDS011;54149;52.708;6.178;2024-02-23T06:20:49;17.90;;;5.95;;
67237;SDS011;54149;52.708;6.178;2024-02-23T06:23:16;16.55;;;6.07;;
67237;SDS011;54149;52.708;6.178;2024-02-23T06:25:42;22.75;;;8.43;;
67237;SDS011;54149;52.708;6.178;2024-02-23T06:28:11;11.68;;;5.63;;
67237;SDS011;54149;52.708;6.178;2024-02-23T06:30:37;22.73;;;6.88;;
67237;SDS011;54149;52.708;6.178;2024-02-23T06:33:03;15.57;;;5.75;;
67237;SDS011;54149;52.708;6.178;2024-02-23T06:35:30;16.08;;;5.90;;
67237;SDS011;54149;52.708;6.178;2024-02-23T06:37:56;18.40;;;6.65;;
67237;SDS011;54149;52.708;6.178;2024-02-23T06:40:22;13.98;;;5.95;;
67237;SDS011;54149;52.708;6.178;2024-02-23T06:42:48;15.65;;;5.60;;
67237;SDS011;54149;52.708;6.178;2024-02-23T06:45:15;15.55;;;5.28;;
67237;SDS011;54149;52.708;6.178;2024-02-23T06:47:41;14.60;;;5.60;;
67237;SDS011;54149;52.708;6.178;2024-02-23T06:50:07;15.90;;;5.30;;
67237;SDS011;54149;52.708;6.178;2024-02-23T06:52:34;13.05;;;5.22;;
67237;SDS011;54149;52.708;6.178;2024-02-23T06:55:00;13.35;;;6.53;;
67237;SDS011;54149;52.708;6.178;2024-02-23T06:57:26;18.30;;;5.80;;
67237;SDS011;54149;52.708;6.178;2024-02-23T06:59:52;15.68;;;5.88;;
67237;SDS011;54149;52.708;6.178;2024-02-23T07:02:18;14.38;;;5.25;;
67237;SDS011;54149;52.708;6.178;2024-02-23T07:04:44;23.15;;;6.38;;
67237;SDS011;54149;52.708;6.178;2024-02-23T07:07:11;12.20;;;4.95;;
67237;SDS011;54149;52.708;6.178;2024-02-23T07:09:37;14.75;;;5.80;;
67237;SDS011;54149;52.708;6.178;2024-02-23T07:12:03;27.85;;;6.32;;
67237;SDS011;54149;52.708;6.178;2024-02-23T07:14:29;19.25;;;6.47;;
67237;SDS011;54149;52.708;6.178;2024-02-23T07:16:56;19.05;;;5.32;;
67237;SDS011;54149;52.708;6.178;2024-02-23T07:19:22;16.15;;;5.20;;
67237;SDS011;54149;52.708;6.178;2024-02-23T07:21:48;29.30;;;7.22;;
67237;SDS011;54149;52.708;6.178;2024-02-23T07:24:14;15.30;;;5.40;;
67237;SDS011;54149;52.708;6.178;2024-02-23T07:26:40;15.57;;;6.18;;
67237;SDS011;54149;52.708;6.178;2024-02-23T07:29:07;8.65;;;4.88;;
67237;SDS011;54149;52.708;6.178;2024-02-23T07:31:33;12.30;;;4.53;;
67237;SDS011;54149;52.708;6.178;2024-02-23T07:33:59;17.45;;;4.63;;
67237;SDS011;54149;52.708;6.178;2024-02-23T07:36:25;13.15;;;4.18;;
67237;SDS011;54149;52.708;6.178;2024-02-23T07:38:51;16.73;;;4.32;;
67237;SDS011;54149;52.708;6.178;2024-02-23T07:41:17;9.65;;;4.05;;
67237;SDS011;54149;52.708;6.178;2024-02-23T07:43:43;15.85;;;4.35;;
67237;SDS011;54149;52.708;6.178;2024-02-23T07:46:10;13.77;;;3.92;;
67237;SDS011;54149;52.708;6.178;2024-02-23T07:48:36;12.50;;;2.90;;
67237;SDS011;54149;52.708;6.178;2024-02-23T07:51:02;10.57;;;3.30;;
67237;SDS011;54149;52.708;6.178;2024-02-23T07:53:29;11.15;;;3.20;;
67237;SDS011;54149;52.708;6.178;2024-02-23T07:55:55;9.00;;;2.67;;
67237;SDS011;54149;52.708;6.178;2024-02-23T07:58:24;13.98;;;3.45;;
67237;SDS011;54149;52.708;6.178;2024-02-23T08:00:51;10.13;;;2.88;;
67237;SDS011;54149;52.708;6.178;2024-02-23T08:03:18;12.23;;;2.72;;
67237;SDS011;54149;52.708;6.178;2024-02-23T08:05:44;8.35;;;2.13;;
67237;SDS011;54149;52.708;6.178;2024-02-23T08:08:10;10.15;;;2.75;;
67237;SDS011;54149;52.708;6.178;2024-02-23T08:10:36;6.55;;;3.05;;
67237;SDS011;54149;52.708;6.178;2024-02-23T08:13:03;9.32;;;2.22;;
67237;SDS011;54149;52.708;6.178;2024-02-23T08:15:30;10.25;;;2.97;;
67237;SDS011;54149;52.708;6.178;2024-02-23T08:17:56;7.35;;;2.30;;
67237;SDS011;54149;52.708;6.178;2024-02-23T08:20:22;9.90;;;2.38;;
67237;SDS011;54149;52.708;6.178;2024-02-23T08:22:49;8.50;;;2.47;;
67237;SDS011;54149;52.708;6.178;2024-02-23T08:25:15;6.60;;;2.72;;
67237;SDS011;54149;52.708;6.178;2024-02-23T08:27:41;12.13;;;2.55;;
67237;SDS011;54149;52.708;6.178;2024-02-23T08:30:08;9.85;;;3.15;;
67237;SDS011;54149;52.708;6.178;2024-02-23T08:32:35;12.57;;;2.97;;
67237;SDS011;54149;52.708;6.178;2024-02-23T08:35:02;15.43;;;4.10;;
67237;SDS011;54149;52.708;6.178;2024-02-23T08:37:28;13.15;;;3.85;;
67237;SDS011;54149;52.708;6.178;2024-02-23T08:39:54;19.70;;;4.60;;
67237;SDS011;54149;52.708;6.178;2024-02-23T08:42:21;13.50;;;3.33;;
67237;SDS011;54149;52.708;6.178;2024-02-23T08:44:47;13.70;;;2.90;;
67237;SDS011;54149;52.708;6.178;2024-02-23T08:47:13;9.40;;;3.20;;
67237;SDS011;54149;52.708;6.178;2024-02-23T08:49:40;16.38;;;4.03;;
67237;SDS011;54149;52.708;6.178;2024-02-23T08:52:06;10.57;;;2.47;;
67237;SDS011;54149;52.708;6.178;2024-02-23T08:54:32;4.60;;;1.92;;
67237;SDS011;54149;52.708;6.178;2024-02-23T08:56:58;5.82;;;1.70;;
67237;SDS011;54149;52.708;6.178;2024-02-23T08:59:24;8.68;;;1.70;;
67237;SDS011;54149;52.708;6.178;2024-02-23T09:01:50;6.15;;;1.48;;
67237;SDS011;54149;52.708;6.178;2024-02-23T09:04:16;5.68;;;1.83;;
67237;SDS011;54149;52.708;6.178;2024-02-23T09:06:42;7.22;;;2.22;;
67237;SDS011;54149;52.708;6.178;2024-02-23T09:09:08;11.20;;;2.10;;
67237;SDS011;54149;52.708;6.178;2024-02-23T09:11:34;10.10;;;1.92;;
67237;SDS011;54149;52.708;6.178;2024-02-23T09:14:02;8.50;;;2.40;;
67237;SDS011;54149;52.708;6.178;2024-02-23T09:16:28;10.70;;;2.28;;
67237;SDS011;54149;52.708;6.178;2024-02-23T09:18:54;8.95;;;1.80;;
67237;SDS011;54149;52.708;6.178;2024-02-23T09:21:20;13.40;;;2.10;;
67237;SDS011;54149;52.708;6.178;2024-02-23T09:23:46;13.77;;;3.10;;
67237;SDS011;54149;52.708;6.178;2024-02-23T09:26:12;9.90;;;2.05;;
67237;SDS011;54149;52.708;6.178;2024-02-23T09:28:38;7.45;;;1.85;;
67237;SDS011;54149;52.708;6.178;2024-02-23T09:31:07;11.15;;;2.08;;
67237;SDS011;54149;52.708;6.178;2024-02-23T09:33:33;14.48;;;2.92;;
67237;SDS011;54149;52.708;6.178;2024-02-23T09:35:59;12.88;;;2.80;;
67237;SDS011;54149;52.708;6.178;2024-02-23T09:38:26;15.00;;;2.92;;
67237;SDS011;54149;52.708;6.178;2024-02-23T09:40:53;15.73;;;2.10;;
67237;SDS011;54149;52.708;6.178;2024-02-23T09:43:22;5.22;;;1.50;;
67237;SDS011;54149;52.708;6.178;2024-02-23T09:45:50;11.50;;;2.40;;
67237;SDS011;54149;52.708;6.178;2024-02-23T09:48:18;14.50;;;2.33;;
67237;SDS011;54149;52.708;6.178;2024-02-23T09:50:44;7.90;;;3.30;;
67237;SDS011;54149;52.708;6.178;2024-02-23T09:53:11;12.38;;;2.42;;
67237;SDS011;54149;52.708;6.178;2024-02-23T09:55:37;10.50;;;1.75;;
67237;SDS011;54149;52.708;6.178;2024-02-23T09:58:03;5.35;;;1.45;;
67237;SDS011;54149;52.708;6.178;2024-02-23T10:00:30;5.75;;;1.88;;
67237;SDS011;54149;52.708;6.178;2024-02-23T10:02:56;9.38;;;1.90;;
67237;SDS011;54149;52.708;6.178;2024-02-23T10:05:25;10.75;;;1.38;;
67237;SDS011;54149;52.708;6.178;2024-02-23T10:07:52;10.05;;;2.15;;
67237;SDS011;54149;52.708;6.178;2024-02-23T10:10:24;5.55;;;1.42;;
67237;SDS011;54149;52.708;6.178;2024-02-23T10:12:51;7.65;;;1.38;;
67237;SDS011;54149;52.708;6.178;2024-02-23T10:15:17;6.80;;;1.27;;
67237;SDS011;54149;52.708;6.178;2024-02-23T10:17:43;9.90;;;2.00;;
67237;SDS011;54149;52.708;6.178;2024-02-23T10:20:10;4.90;;;1.60;;
67237;SDS011;54149;52.708;6.178;2024-02-23T10:22:36;7.65;;;1.50;;
67237;SDS011;54149;52.708;6.178;2024-02-23T10:25:02;11.18;;;1.20;;
67237;SDS011;54149;52.708;6.178;2024-02-23T10:27:29;9.60;;;1.30;;
67237;SDS011;54149;52.708;6.178;2024-02-23T10:29:55;13.10;;;1.30;;
67237;SDS011;54149;52.708;6.178;2024-02-23T10:32:22;9.93;;;1.40;;
67237;SDS011;54149;52.708;6.178;2024-02-23T10:34:49;6.93;;;1.20;;
67237;SDS011;54149;52.708;6.178;2024-02-23T10:37:16;9.63;;;1.58;;
67237;SDS011;54149;52.708;6.178;2024-02-23T10:39:42;5.72;;;1.40;;
67237;SDS011;54149;52.708;6.178;2024-02-23T10:42:09;11.98;;;1.30;;
67237;SDS011;54149;52.708;6.178;2024-02-23T10:44:37;7.07;;;1.63;;
67237;SDS011;54149;52.708;6.178;2024-02-23T10:47:04;11.38;;;1.60;;
67237;SDS011;54149;52.708;6.178;2024-02-23T10:49:30;7.18;;;1.38;;
67237;SDS011;54149;52.708;6.178;2024-02-23T10:51:57;11.52;;;2.28;;
67237;SDS011;54149;52.708;6.178;2024-02-23T10:54:23;6.35;;;1.48;;
67237;SDS011;54149;52.708;6.178;2024-02-23T10:56:50;7.53;;;2.10;;
67237;SDS011;54149;52.708;6.178;2024-02-23T10:59:16;7.18;;;1.30;;
67237;SDS011;54149;52.708;6.178;2024-02-23T11:01:46;9.38;;;2.13;;
67237;SDS011;54149;52.708;6.178;2024-02-23T11:04:14;7.78;;;1.63;;
67237;SDS011;54149;52.708;6.178;2024-02-23T11:06:41;6.28;;;1.58;;
67237;SDS011;54149;52.708;6.178;2024-02-23T11:09:07;7.53;;;1.55;;
67237;SDS011;54149;52.708;6.178;2024-02-23T11:11:34;7.60;;;1.52;;
67237;SDS011;54149;52.708;6.178;2024-02-23T11:14:06;9.60;;;1.98;;
67237;SDS011;54149;52.708;6.178;2024-02-23T11:19:04;6.15;;;1.67;;
67237;SDS011;54149;52.708;6.178;2024-02-23T11:21:34;6.97;;;1.40;;
67237;SDS011;54149;52.708;6.178;2024-02-23T11:24:02;5.53;;;1.73;;
67237;SDS011;54149;52.708;6.178;2024-02-23T11:26:28;9.00;;;1.50;;
67237;SDS011;54149;52.708;6.178;2024-02-23T11:28:55;10.63;;;2.03;;
67237;SDS011;54149;52.708;6.178;2024-02-23T11:31:24;4.95;;;1.23;;
67237;SDS011;54149;52.708;6.178;2024-02-23T11:33:50;6.72;;;1.42;;
67237;SDS011;54149;52.708;6.178;2024-02-23T11:36:27;4.90;;;1.10;;
67237;SDS011;54149;52.708;6.178;2024-02-23T11:38:54;4.82;;;1.27;;
67237;SDS011;54149;52.708;6.178;2024-02-23T11:41:21;6.72;;;1.40;;
67237;SDS011;54149;52.708;6.178;2024-02-23T11:43:48;6.15;;;1.67;;
67237;SDS011;54149;52.708;6.178;2024-02-23T11:46:15;7.22;;;1.35;;
67237;SDS011;54149;52.708;6.178;2024-02-23T11:48:42;3.55;;;1.40;;
67237;SDS011;54149;52.708;6.178;2024-02-23T11:51:09;7.68;;;1.77;;
67237;SDS011;54149;52.708;6.178;2024-02-23T11:53:36;6.15;;;2.38;;
67237;SDS011;54149;52.708;6.178;2024-02-23T11:56:04;4.93;;;1.50;;
67237;SDS011;54149;52.708;6.178;2024-02-23T11:58:31;9.23;;;1.88;;
67237;SDS011;54149;52.708;6.178;2024-02-23T12:00:58;6.22;;;1.63;;
67237;SDS011;54149;52.708;6.178;2024-02-23T12:03:25;7.03;;;2.38;;
67237;SDS011;54149;52.708;6.178;2024-02-23T12:05:52;4.75;;;1.50;;
67237;SDS011;54149;52.708;6.178;2024-02-23T12:08:18;10.68;;;2.35;;
67237;SDS011;54149;52.708;6.178;2024-02-23T12:10:44;4.28;;;1.92;;
67237;SDS011;54149;52.708;6.178;2024-02-23T12:13:10;8.77;;;2.78;;
67237;SDS011;54149;52.708;6.178;2024-02-23T12:15:36;9.68;;;2.72;;
67237;SDS011;54149;52.708;6.178;2024-02-23T12:18:03;9.60;;;2.00;;
67237;SDS011;54149;52.708;6.178;2024-02-23T12:20:32;6.15;;;2.28;;
67237;SDS011;54149;52.708;6.178;2024-02-23T12:23:00;7.00;;;1.77;;
67237;SDS011;54149;52.708;6.178;2024-02-23T12:25:26;10.02;;;2.53;;
67237;SDS011;54149;52.708;6.178;2024-02-23T12:27:56;5.25;;;2.15;;
67237;SDS011;54149;52.708;6.178;2024-02-23T12:30:22;4.80;;;2.20;;
67237;SDS011;54149;52.708;6.178;2024-02-23T12:32:48;5.35;;;1.58;;
67237;SDS011;54149;52.708;6.178;2024-02-23T12:35:14;5.93;;;1.73;;
67237;SDS011;54149;52.708;6.178;2024-02-23T12:37:42;7.88;;;1.92;;
67237;SDS011;54149;52.708;6.178;2024-02-23T12:40:08;3.90;;;2.10;;
67237;SDS011;54149;52.708;6.178;2024-02-23T12:42:35;9.98;;;2.15;;
67237;SDS011;54149;52.708;6.178;2024-02-23T12:45:01;6.22;;;2.75;;
67237;SDS011;54149;52.708;6.178;2024-02-23T12:47:27;4.82;;;1.70;;
67237;SDS011;54149;52.708;6.178;2024-02-23T12:49:53;9.25;;;2.55;;
67237;SDS011;54149;52.708;6.178;2024-02-23T12:52:19;6.63;;;1.90;;
67237;SDS011;54149;52.708;6.178;2024-02-23T12:54:45;8.80;;;2.22;;
67237;SDS011;54149;52.708;6.178;2024-02-23T12:57:11;5.43;;;2.10;;
67237;SDS011;54149;52.708;6.178;2024-02-23T12:59:37;5.15;;;2.05;;
67237;SDS011;54149;52.708;6.178;2024-02-23T13:02:04;3.85;;;2.35;;
67237;SDS011;54149;52.708;6.178;2024-02-23T13:04:31;5.22;;;2.90;;
67237;SDS011;54149;52.708;6.178;2024-02-23T13:06:57;11.38;;;3.20;;
67237;SDS011;54149;52.708;6.178;2024-02-23T13:09:23;4.78;;;2.20;;
67237;SDS011;54149;52.708;6.178;2024-02-23T13:11:49;11.48;;;2.53;;
67237;SDS011;54149;52.708;6.178;2024-02-23T13:14:16;14.90;;;3.67;;
67237;SDS011;54149;52.708;6.178;2024-02-23T13:16:42;7.22;;;2.67;;
67237;SDS011;54149;52.708;6.178;2024-02-23T13:19:08;8.00;;;2.65;;
67237;SDS011;54149;52.708;6.178;2024-02-23T13:21:34;7.85;;;3.22;;
67237;SDS011;54149;52.708;6.178;2024-02-23T13:24:00;9.77;;;3.15;;
67237;SDS011;54149;52.708;6.178;2024-02-23T13:26:27;11.38;;;3.20;;
67237;SDS011;54149;52.708;6.178;2024-02-23T13:28:53;12.35;;;3.92;;
67237;SDS011;54149;52.708;6.178;2024-02-23T13:31:19;11.00;;;3.33;;
67237;SDS011;54149;52.708;6.178;2024-02-23T13:33:46;10.40;;;4.45;;
67237;SDS011;54149;52.708;6.178;2024-02-23T13:36:12;10.48;;;4.13;;
67237;SDS011;54149;52.708;6.178;2024-02-23T13:38:38;9.20;;;3.17;;
67237;SDS011;54149;52.708;6.178;2024-02-23T13:41:05;8.77;;;3.05;;
67237;SDS011;54149;52.708;6.178;2024-02-23T13:43:31;5.15;;;2.22;;
67237;SDS011;54149;52.708;6.178;2024-02-23T13:45:58;5.40;;;2.33;;
67237;SDS011;54149;52.708;6.178;2024-02-23T13:48:24;8.63;;;2.53;;
67237;SDS011;54149;52.708;6.178;2024-02-23T13:50:51;15.52;;;3.20;;
67237;SDS011;54149;52.708;6.178;2024-02-23T13:53:17;7.10;;;2.55;;
67237;SDS011;54149;52.708;6.178;2024-02-23T13:55:43;10.75;;;3.53;;
67237;SDS011;54149;52.708;6.178;2024-02-23T13:58:09;8.20;;;2.47;;
67237;SDS011;54149;52.708;6.178;2024-02-23T14:00:36;11.32;;;3.85;;
67237;SDS011;54149;52.708;6.178;2024-02-23T14:03:02;15.30;;;5.57;;
67237;SDS011;54149;52.708;6.178;2024-02-23T14:05:28;7.07;;;2.70;;
67237;SDS011;54149;52.708;6.178;2024-02-23T14:07:54;16.50;;;3.10;;
67237;SDS011;54149;52.708;6.178;2024-02-23T14:10:21;7.97;;;2.55;;
67237;SDS011;54149;52.708;6.178;2024-02-23T14:12:47;7.53;;;2.58;;
67237;SDS011;54149;52.708;6.178;2024-02-23T14:15:15;5.63;;;2.75;;
67237;SDS011;54149;52.708;6.178;2024-02-23T14:17:42;6.72;;;2.78;;
67237;SDS011;54149;52.708;6.178;2024-02-23T14:20:08;8.65;;;2.60;;
67237;SDS011;54149;52.708;6.178;2024-02-23T14:22:35;10.38;;;2.80;;
67237;SDS011;54149;52.708;6.178;2024-02-23T14:25:01;8.68;;;2.58;;
67237;SDS011;54149;52.708;6.178;2024-02-23T14:27:27;8.43;;;3.22;;
67237;SDS011;54149;52.708;6.178;2024-02-23T14:29:53;8.32;;;3.00;;
67237;SDS011;54149;52.708;6.178;2024-02-23T14:32:19;9.15;;;2.65;;
67237;SDS011;54149;52.708;6.178;2024-02-23T14:34:46;7.53;;;2.55;;
67237;SDS011;54149;52.708;6.178;2024-02-23T14:37:12;8.70;;;3.22;;
67237;SDS011;54149;52.708;6.178;2024-02-23T14:39:38;7.70;;;3.05;;